CheckWX is a tool to help pilots better visualize weather data.  It is not intended as a substitute for an official pre-flight weather briefing.

00:42:06 UTC

DTTK METAR
Kairouan Airport
Kairouan, Tunisia
Current

42 mins ago

DTTK 270000Z VRB02KT 6000 -RA SCT023 BKN030 13/09 Q1017
Observed
Mar-27 @ 00:00 UTC
Wind
  • Variable at 2 KTS
Visibility
6,003 meters
Flight Rules
MVFR
Conditions
Light Rain
Cloud Levels
  • Scattered at 2,300' AGL
  • Broken at 3,000' AGL
Temperature
13°C / 55°F
Dewpoint
C / 48°F
Humidity
77%
Altimeter
30.03" Hg
Pressure
1016.92 hPa
Previous

2 hours ago

DTTK 262300Z 06003KT 360V120 7000 SCT023 BKN030 14/11 Q1018
Observed
Mar-26 @ 23:00 UTC
Wind
  • 060° at 3 KTS
Visibility
7,001 meters
Flight Rules
MVFR
Cloud Levels
  • Scattered at 2,300' AGL
  • Broken at 3,000' AGL
Temperature
14°C / 57°F
Dewpoint
11°C / 52°F
Humidity
82%
Altimeter
30.06" Hg
Pressure
1017.92 hPa
Previous

3 hours ago

DTTK 262200Z VRB02KT 7000 SCT023 BKN030 14/11 Q1017
Observed
Mar-26 @ 22:00 UTC
Wind
  • Variable at 2 KTS
Visibility
7,001 meters
Flight Rules
MVFR
Cloud Levels
  • Scattered at 2,300' AGL
  • Broken at 3,000' AGL
Temperature
14°C / 57°F
Dewpoint
11°C / 52°F
Humidity
82%
Altimeter
30.03" Hg
Pressure
1016.92 hPa